Queen Of Nanaimo — VCNX — position and weather

sailwx.info

Track history (hours):
 
Tides and Currents Weather Stations Pressure Air Temp Water Temp Dewpoint Dewpoint Depression Visibility Wind Speed Wind Dir Waves Ship Positions

Queen Of Nanaimo

Last reported at 2016-May-03 20:04 UTC. Time now 2016-May-03 22:04 UTC.
Position N 48°48' W 123°23'.

Length 130 m; draft 4 m.

Type: Passenger vessel. MMSI: 316001254.

Date/timePositionNaut miles runAvg speedWind from/ knotsBaromVisibWave heightAir tempDewpointWater temp
2016-May-03 20:04N 48°48' W 123°23'3 4.2
2016-May-03 19:26N 48°48' W 123°19'4 4.2
2016-May-03 18:32N 48°52' W 123°19'8 7.8
2016-May-03 17:33N 48°58' W 123°12'4 3.9
2016-May-03 16:34N 49°00' W 123°08'1010.0
2016-May-03 15:33N 48°53' W 123°18'3 2.4
2016-May-03 14:29N 48°51' W 123°20'3 3.4
2016-May-03 13:33N 48°50' W 123°25'2 2.1
2016-May-03 12:30N 48°51' W 123°27'0 0.0
2016-May-03 11:29N 48°51' W 123°27'0 0.0
2016-May-03 06:26N 48°51' W 123°27'0 0.0
2016-May-03 05:18N 48°51' W 123°27'6 6.7
2016-May-03 04:25N 48°48' W 123°20'5 5.3
2016-May-03 03:33N 48°52' W 123°18'9 8.7
2016-May-03 02:33N 48°59' W 123°10'2 2.0
2016-May-03 01:33N 49°00' W 123°08'1110.0
2016-May-03 00:29N 48°53' W 123°19'3 2.9
2016-May-02 23:23N 48°50' W 123°20'4 1.2
2016-May-02 20:11N 48°51' W 123°26'5 6.6
2016-May-02 19:26N 48°48' W 123°20'5 5.4
2016-May-02 18:33N 48°53' W 123°19'1010.3
2016-May-02 17:33N 49°00' W 123°08'0 0.4
2016-May-02 16:34N 49°00' W 123°08'1010.0
2016-May-02 15:34N 48°53' W 123°18'3 2.9
2016-May-02 14:28N 48°50' W 123°20'3 2.9
2016-May-02 13:31N 48°49' W 123°24'3 0.5
2016-May-02 08:32N 48°51' W 123°27'0 0.0
2016-May-02 07:32N 48°51' W 123°27'0 0.0
2016-May-02 06:33N 48°51' W 123°27'5 4.9
2016-May-02 05:33N 48°52' W 123°19'1211.7
2016-May-02 04:33N 49°00' W 123°08'1212.1
2016-May-02 03:34N 48°52' W 123°20'2 1.9
2016-May-02 02:33N 48°53' W 123°18'1010.2
2016-May-02 01:33N 49°00' W 123°08'9 8.5
2016-May-02 00:34N 48°54' W 123°16'4 4.1
2016-May-01 23:33N 48°51' W 123°21'4 4.0
2016-May-01 22:32N 48°51' W 123°27'0 0.0
2016-May-01 21:33N 48°51' W 123°27'6 6.1
2016-May-01 20:33N 48°48' W 123°19'4 3.8
2016-May-01 19:32N 48°52' W 123°21'8 8.2
2016-May-01 18:33N 48°57' W 123°12'4 4.2
2016-May-01 17:33N 49°00' W 123°08'9 9.4
2016-May-01 16:33N 48°53' W 123°17'3 3.0
2016-May-01 15:33N 48°51' W 123°20'3 3.4
2016-May-01 14:33N 48°49' W 123°24'3 2.8
2016-May-01 13:31N 48°51' W 123°27'0 0.0
2016-May-01 12:33N 48°51' W 123°27'0 0.0
2016-May-01 11:32N 48°51' W 123°27'0 0.0
2016-May-01 10:30N 48°51' W 123°27'0 0.0
2016-May-01 09:32N 48°51' W 123°27'0 0.0
2016-May-01 08:31N 48°51' W 123°27'0 0.0
2016-May-01 07:33N 48°51' W 123°27'0 0.0
2016-May-01 06:30N 48°51' W 123°27'3 2.8
2016-May-01 05:33N 48°51' W 123°23'4 3.9
2016-May-01 04:33N 48°53' W 123°18'10 9.7
2016-May-01 03:33N 49°00' W 123°08'0 0.0
2016-May-01 02:34N 49°00' W 123°08'0 0.1
2016-May-01 01:33N 49°00' W 123°08'1110.5
2016-May-01 00:33N 48°53' W 123°19'4 4.4
2016-Apr-30 23:33N 48°48' W 123°20'5 5.2
2016-Apr-30 22:32N 48°51' W 123°27'0 0.0
2016-Apr-30 21:32N 48°51' W 123°27'1 0.7
2016-Apr-30 20:32N 48°51' W 123°26'1212.0
2016-Apr-30 19:33N 48°58' W 123°12'1 1.0
2016-Apr-30 18:33N 48°58' W 123°10'10 8.0
2016-Apr-30 17:22N 48°51' W 123°20'2 2.4
2016-Apr-30 16:33N 48°53' W 123°19'1110.7
2016-Apr-30 15:34N 49°00' W 123°08'4 3.8
2016-Apr-30 14:34N 48°57' W 123°09'1312.4
2016-Apr-30 13:33N 48°51' W 123°26'0 0.2
2016-Apr-30 12:23N 48°51' W 123°27'0 0.0
2016-Apr-30 10:07N 48°51' W 123°27'0 0.0
2016-Apr-30 07:33N 48°51' W 123°27'0 0.0
2016-Apr-30 06:06N 48°51' W 123°27'0 0.0
2016-Apr-30 05:33N 48°51' W 123°27'5 5.1
2016-Apr-30 04:34N 48°49' W 123°20'4 3.9
2016-Apr-30 03:31N 48°53' W 123°19'1010.9
2016-Apr-30 02:34N 49°00' W 123°08'0 0.2
2016-Apr-30 01:33N 49°00' W 123°08'1110.7
2016-Apr-30 00:34N 48°53' W 123°19'2 1.8
2016-Apr-29 23:27N 48°51' W 123°20'3 3.7
2016-Apr-29 22:34N 48°49' W 123°24'3 1.4
2016-Apr-29 20:33N 48°51' W 123°27'6 6.0
2016-Apr-29 19:33N 48°48' W 123°19'4 3.8
2016-Apr-29 18:33N 48°52' W 123°21'9 8.7
2016-Apr-29 17:33N 48°58' W 123°12'4 3.6
2016-Apr-29 16:34N 49°00' W 123°08'10 9.7
2016-Apr-29 15:34N 48°53' W 123°17'3 2.6
2016-Apr-29 14:28N 48°51' W 123°20'3 3.5
2016-Apr-29 13:33N 48°49' W 123°24'3 2.8
2016-Apr-29 12:27N 48°51' W 123°27'0 0.0
2016-Apr-29 11:31N 48°51' W 123°27'0 0.0
2016-Apr-29 10:33N 48°51' W 123°27'0 0.0
2016-Apr-29 09:09N 48°51' W 123°27'0 0.0
2016-Apr-29 06:33N 48°51' W 123°27'0 0.4
2016-Apr-29 05:28N 48°51' W 123°26'4 4.7
2016-Apr-29 04:33N 48°49' W 123°20'3 3.4
2016-Apr-29 03:33N 48°53' W 123°19'10 9.7
2016-Apr-29 02:34N 48°60' W 123°09'1 1.0
2016-Apr-29 01:33N 49°00' W 123°08'1110.7
2016-Apr-29 00:33N 48°53' W 123°19'2 1.9
2016-Apr-28 23:32N 48°51' W 123°20'4 3.7
2016-Apr-28 22:33N 48°50' W 123°25'1 0.7
2016-Apr-28 20:30N 48°51' W 123°27'6 5.8
2016-Apr-28 19:27N 48°48' W 123°19'4 4.6
2016-Apr-28 18:34N 48°52' W 123°18'9 8.9
2016-Apr-28 17:34N 48°59' W 123°10'2 2.0
2016-Apr-28 16:33N 49°00' W 123°08'1110.7
2016-Apr-28 15:34N 48°53' W 123°19'2 2.3
2016-Apr-28 14:33N 48°50' W 123°20'3 2.8
2016-Apr-28 13:33N 48°49' W 123°24'3 2.1
2016-Apr-28 12:13N 48°51' W 123°27'0 0.0
2016-Apr-28 11:32N 48°51' W 123°27'0 0.0
2016-Apr-28 10:11N 48°51' W 123°27'0 0.0
2016-Apr-28 09:23N 48°51' W 123°27'0 0.0
2016-Apr-28 08:28N 48°51' W 123°27'0 0.0
2016-Apr-28 07:28N 48°51' W 123°27'0 0.0
2016-Apr-28 05:23N 48°51' W 123°27'6 7.2
2016-Apr-28 04:32N 48°48' W 123°19'5 4.7
2016-Apr-28 03:33N 48°53' W 123°19'9 8.8
2016-Apr-28 02:33N 48°59' W 123°10'2 1.8
2016-Apr-28 01:34N 49°00' W 123°08'1110.3
2016-Apr-28 00:31N 48°53' W 123°19'2 1.9
2016-Apr-27 23:31N 48°51' W 123°20'3 3.6
2016-Apr-27 22:33N 48°49' W 123°24'3 1.3
2016-Apr-27 20:30N 48°51' W 123°27'6 6.4
2016-Apr-27 19:33N 48°48' W 123°19'4 3.7
2016-Apr-27 18:32N 48°51' W 123°21'8 8.3
2016-Apr-27 17:34N 48°57' W 123°12'4 4.3
2016-Apr-27 16:33N 49°00' W 123°08'1010.0
2016-Apr-27 15:33N 48°53' W 123°18'2 2.5
2016-Apr-27 14:33N 48°51' W 123°20'3 3.3
2016-Apr-27 13:33N 48°49' W 123°24'3 2.8
2016-Apr-27 12:33N 48°51' W 123°27'0 0.0
2016-Apr-27 11:28N 48°51' W 123°27'0 0.0
2016-Apr-27 10:12N 48°51' W 123°27'0 0.0
2016-Apr-27 08:27N 48°51' W 123°27'0 0.0
2016-Apr-27 05:31N 48°51' W 123°27'5 5.7
2016-Apr-27 04:33N 48°48' W 123°20'5 4.7
2016-Apr-27 03:33N 48°53' W 123°19'10 9.5
2016-Apr-27 02:33N 48°60' W 123°09'1 1.1
2016-Apr-27 01:33N 49°00' W 123°08'1110.4
2016-Apr-27 00:32N 48°53' W 123°19'2 1.9
2016-Apr-26 23:30N 48°51' W 123°20'3 3.5
2016-Apr-26 22:33N 48°50' W 123°25'2 0.9
2016-Apr-26 20:20N 48°51' W 123°27'6 7.7
2016-Apr-26 19:33N 48°48' W 123°19'4 3.7
2016-Apr-26 18:33N 48°51' W 123°21'9 8.6
2016-Apr-26 17:34N 48°58' W 123°12'4 4.0
2016-Apr-26 16:34N 49°00' W 123°08'1010.4
2016-Apr-26 15:33N 48°53' W 123°18'2 2.0
2016-Apr-26 14:31N 48°51' W 123°20'3 3.4
2016-Apr-26 13:33N 48°50' W 123°24'2 1.5
2016-Apr-26 12:07N 48°51' W 123°27'0 0.0
2016-Apr-26 11:27N 48°51' W 123°27'0 0.0
2016-Apr-26 09:24N 48°51' W 123°27'0 0.0
2016-Apr-26 08:33N 48°51' W 123°27'0 0.0
2016-Apr-26 05:32N 48°51' W 123°27'6 5.8
2016-Apr-26 04:30N 48°48' W 123°19'5 4.9
2016-Apr-26 03:33N 48°53' W 123°19'1010.5
2016-Apr-26 02:34N 49°00' W 123°08'0 0.2
2016-Apr-26 01:33N 49°00' W 123°08'1110.7
2016-Apr-26 00:34N 48°53' W 123°19'3 2.7
2016-Apr-25 23:33N 48°50' W 123°20'3 2.6
2016-Apr-25 22:33N 48°49' W 123°24'3 1.5
2016-Apr-25 20:29N 48°51' W 123°27'6 5.5
2016-Apr-25 19:23N 48°48' W 123°19'4 4.4
2016-Apr-25 18:34N 48°52' W 123°19'9 8.6
2016-Apr-25 17:33N 48°58' W 123°10'3 2.7
2016-Apr-25 16:33N 49°00' W 123°08'1110.7
2016-Apr-25 15:34N 48°53' W 123°19'2 1.9
2016-Apr-25 14:33N 48°51' W 123°20'3 3.3
2016-Apr-25 13:33N 48°49' W 123°24'3 0.9
2016-Apr-25 10:21N 48°51' W 123°27'0 0.0
2016-Apr-25 09:06N 48°51' W 123°27'0 0.0
2016-Apr-25 06:04N 48°51' W 123°27'1 2.7
2016-Apr-25 05:33N 48°51' W 123°25'1514.7
2016-Apr-25 04:34N 49°00' W 123°08'1010.0
2016-Apr-25 03:34N 48°53' W 123°18'3 2.6
2016-Apr-25 02:34N 48°51' W 123°21'1312.5
2016-Apr-25 01:33N 49°00' W 123°08'7 7.3
2016-Apr-25 00:33N 48°55' W 123°15'5 5.1
2016-Apr-24 23:33N 48°51' W 123°20'5 4.3
2016-Apr-24 22:28N 48°51' W 123°27'0 0.0
2016-Apr-24 21:30N 48°51' W 123°27'6 6.4
2016-Apr-24 20:33N 48°48' W 123°19'4 4.2
2016-Apr-24 19:33N 48°52' W 123°18'1010.5
2016-Apr-24 18:33N 48°60' W 123°08'0 0.5
2016-Apr-24 17:33N 49°00' W 123°08'10 9.7
2016-Apr-24 16:33N 48°53' W 123°17'3 2.7
2016-Apr-24 15:31N 48°51' W 123°20'3 3.4
2016-Apr-24 14:33N 48°49' W 123°24'3 2.6
2016-Apr-24 13:31N 48°51' W 123°27'0 0.0
2016-Apr-24 12:32N 48°51' W 123°27'0 0.0
2016-Apr-24 11:32N 48°51' W 123°27'0 0.0
2016-Apr-24 10:33N 48°51' W 123°27'0 0.0
2016-Apr-24 09:26N 48°51' W 123°27'0 0.0
2016-Apr-24 08:33N 48°51' W 123°27'0 0.0
2016-Apr-24 06:19N 48°51' W 123°27'2 2.3
2016-Apr-24 05:33N 48°51' W 123°24'4 3.7
2016-Apr-24 04:33N 48°53' W 123°19'1110.7
2016-Apr-24 03:33N 49°00' W 123°08'0 0.0
2016-Apr-24 02:33N 49°00' W 123°08'0 0.0
2016-Apr-24 01:33N 49°00' W 123°08'1110.7
2016-Apr-24 00:33N 48°53' W 123°19'4 3.6
2016-Apr-23 23:33N 48°49' W 123°20'5 3.3
2016-Apr-23 22:06N 48°51' W 123°27'0 0.0
2016-Apr-23 21:09N 48°51' W 123°27'1 2.4
2016-Apr-23 20:33N 48°51' W 123°25'  
Track history (hours):
 
Tides and Currents Weather Stations Pressure Air Temp Water Temp Dewpoint Dewpoint Depression Visibility Wind Speed Wind Dir Waves Ship Positions

Queen Of Nanaimo

Last reported at 2016-May-03 20:04 UTC. Time now 2016-May-03 22:04 UTC.
Position N 48°48' W 123°23'.

Length 130 m; draft 4 m.

Type: Passenger vessel. MMSI: 316001254.

Date/timePositionNaut miles runAvg speedWind from/ knotsBaromVisibWave heightAir tempDewpointWater temp
2016-May-03 20:04N 48°48' W 123°23'3 4.2
2016-May-03 19:26N 48°48' W 123°19'4 4.2
2016-May-03 18:32N 48°52' W 123°19'8 7.8
2016-May-03 17:33N 48°58' W 123°12'4 3.9
2016-May-03 16:34N 49°00' W 123°08'1010.0
2016-May-03 15:33N 48°53' W 123°18'3 2.4
2016-May-03 14:29N 48°51' W 123°20'3 3.4
2016-May-03 13:33N 48°50' W 123°25'2 2.1
2016-May-03 12:30N 48°51' W 123°27'0 0.0
2016-May-03 11:29N 48°51' W 123°27'0 0.0
2016-May-03 06:26N 48°51' W 123°27'0 0.0
2016-May-03 05:18N 48°51' W 123°27'6 6.7
2016-May-03 04:25N 48°48' W 123°20'5 5.3
2016-May-03 03:33N 48°52' W 123°18'9 8.7
2016-May-03 02:33N 48°59' W 123°10'2 2.0
2016-May-03 01:33N 49°00' W 123°08'1110.0
2016-May-03 00:29N 48°53' W 123°19'3 2.9
2016-May-02 23:23N 48°50' W 123°20'4 1.2
2016-May-02 20:11N 48°51' W 123°26'5 6.6
2016-May-02 19:26N 48°48' W 123°20'5 5.4
2016-May-02 18:33N 48°53' W 123°19'1010.3
2016-May-02 17:33N 49°00' W 123°08'0 0.4
2016-May-02 16:34N 49°00' W 123°08'1010.0
2016-May-02 15:34N 48°53' W 123°18'3 2.9
2016-May-02 14:28N 48°50' W 123°20'3 2.9
2016-May-02 13:31N 48°49' W 123°24'3 0.5
2016-May-02 08:32N 48°51' W 123°27'0 0.0
2016-May-02 07:32N 48°51' W 123°27'0 0.0
2016-May-02 06:33N 48°51' W 123°27'5 4.9
2016-May-02 05:33N 48°52' W 123°19'1211.7
2016-May-02 04:33N 49°00' W 123°08'1212.1
2016-May-02 03:34N 48°52' W 123°20'2 1.9
2016-May-02 02:33N 48°53' W 123°18'1010.2
2016-May-02 01:33N 49°00' W 123°08'9 8.5
2016-May-02 00:34N 48°54' W 123°16'4 4.1
2016-May-01 23:33N 48°51' W 123°21'4 4.0
2016-May-01 22:32N 48°51' W 123°27'0 0.0
2016-May-01 21:33N 48°51' W 123°27'6 6.1
2016-May-01 20:33N 48°48' W 123°19'4 3.8
2016-May-01 19:32N 48°52' W 123°21'8 8.2
2016-May-01 18:33N 48°57' W 123°12'4 4.2
2016-May-01 17:33N 49°00' W 123°08'9 9.4
2016-May-01 16:33N 48°53' W 123°17'3 3.0
2016-May-01 15:33N 48°51' W 123°20'3 3.4
2016-May-01 14:33N 48°49' W 123°24'3 2.8
2016-May-01 13:31N 48°51' W 123°27'0 0.0
2016-May-01 12:33N 48°51' W 123°27'0 0.0
2016-May-01 11:32N 48°51' W 123°27'0 0.0
2016-May-01 10:30N 48°51' W 123°27'0 0.0
2016-May-01 09:32N 48°51' W 123°27'0 0.0
2016-May-01 08:31N 48°51' W 123°27'0 0.0
2016-May-01 07:33N 48°51' W 123°27'0 0.0
2016-May-01 06:30N 48°51' W 123°27'3 2.8
2016-May-01 05:33N 48°51' W 123°23'4 3.9
2016-May-01 04:33N 48°53' W 123°18'10 9.7
2016-May-01 03:33N 49°00' W 123°08'0 0.0
2016-May-01 02:34N 49°00' W 123°08'0 0.1
2016-May-01 01:33N 49°00' W 123°08'1110.5
2016-May-01 00:33N 48°53' W 123°19'4 4.4
2016-Apr-30 23:33N 48°48' W 123°20'5 5.2
2016-Apr-30 22:32N 48°51' W 123°27'0 0.0
2016-Apr-30 21:32N 48°51' W 123°27'1 0.7
2016-Apr-30 20:32N 48°51' W 123°26'1212.0
2016-Apr-30 19:33N 48°58' W 123°12'1 1.0
2016-Apr-30 18:33N 48°58' W 123°10'10 8.0
2016-Apr-30 17:22N 48°51' W 123°20'2 2.4
2016-Apr-30 16:33N 48°53' W 123°19'1110.7
2016-Apr-30 15:34N 49°00' W 123°08'4 3.8
2016-Apr-30 14:34N 48°57' W 123°09'1312.4
2016-Apr-30 13:33N 48°51' W 123°26'0 0.2
2016-Apr-30 12:23N 48°51' W 123°27'0 0.0
2016-Apr-30 10:07N 48°51' W 123°27'0 0.0
2016-Apr-30 07:33N 48°51' W 123°27'0 0.0
2016-Apr-30 06:06N 48°51' W 123°27'0 0.0
2016-Apr-30 05:33N 48°51' W 123°27'5 5.1
2016-Apr-30 04:34N 48°49' W 123°20'4 3.9
2016-Apr-30 03:31N 48°53' W 123°19'1010.9
2016-Apr-30 02:34N 49°00' W 123°08'0 0.2
2016-Apr-30 01:33N 49°00' W 123°08'1110.7
2016-Apr-30 00:34N 48°53' W 123°19'2 1.8
2016-Apr-29 23:27N 48°51' W 123°20'3 3.7
2016-Apr-29 22:34N 48°49' W 123°24'3 1.4
2016-Apr-29 20:33N 48°51' W 123°27'6 6.0
2016-Apr-29 19:33N 48°48' W 123°19'4 3.8
2016-Apr-29 18:33N 48°52' W 123°21'9 8.7
2016-Apr-29 17:33N 48°58' W 123°12'4 3.6
2016-Apr-29 16:34N 49°00' W 123°08'10 9.7
2016-Apr-29 15:34N 48°53' W 123°17'3 2.6
2016-Apr-29 14:28N 48°51' W 123°20'3 3.5
2016-Apr-29 13:33N 48°49' W 123°24'3 2.8
2016-Apr-29 12:27N 48°51' W 123°27'0 0.0
2016-Apr-29 11:31N 48°51' W 123°27'0 0.0
2016-Apr-29 10:33N 48°51' W 123°27'0 0.0
2016-Apr-29 09:09N 48°51' W 123°27'0 0.0
2016-Apr-29 06:33N 48°51' W 123°27'0 0.4
2016-Apr-29 05:28N 48°51' W 123°26'4 4.7
2016-Apr-29 04:33N 48°49' W 123°20'3 3.4
2016-Apr-29 03:33N 48°53' W 123°19'10 9.7
2016-Apr-29 02:34N 48°60' W 123°09'1 1.0
2016-Apr-29 01:33N 49°00' W 123°08'1110.7
2016-Apr-29 00:33N 48°53' W 123°19'2 1.9
2016-Apr-28 23:32N 48°51' W 123°20'4 3.7
2016-Apr-28 22:33N 48°50' W 123°25'1 0.7
2016-Apr-28 20:30N 48°51' W 123°27'6 5.8
2016-Apr-28 19:27N 48°48' W 123°19'4 4.6
2016-Apr-28 18:34N 48°52' W 123°18'9 8.9
2016-Apr-28 17:34N 48°59' W 123°10'2 2.0
2016-Apr-28 16:33N 49°00' W 123°08'1110.7
2016-Apr-28 15:34N 48°53' W 123°19'2 2.3
2016-Apr-28 14:33N 48°50' W 123°20'3 2.8
2016-Apr-28 13:33N 48°49' W 123°24'3 2.1
2016-Apr-28 12:13N 48°51' W 123°27'0 0.0
2016-Apr-28 11:32N 48°51' W 123°27'0 0.0
2016-Apr-28 10:11N 48°51' W 123°27'0 0.0
2016-Apr-28 09:23N 48°51' W 123°27'0 0.0
2016-Apr-28 08:28N 48°51' W 123°27'0 0.0
2016-Apr-28 07:28N 48°51' W 123°27'0 0.0
2016-Apr-28 05:23N 48°51' W 123°27'6 7.2
2016-Apr-28 04:32N 48°48' W 123°19'5 4.7
2016-Apr-28 03:33N 48°53' W 123°19'9 8.8
2016-Apr-28 02:33N 48°59' W 123°10'2 1.8
2016-Apr-28 01:34N 49°00' W 123°08'1110.3
2016-Apr-28 00:31N 48°53' W 123°19'2 1.9
2016-Apr-27 23:31N 48°51' W 123°20'3 3.6
2016-Apr-27 22:33N 48°49' W 123°24'3 1.3
2016-Apr-27 20:30N 48°51' W 123°27'6 6.4
2016-Apr-27 19:33N 48°48' W 123°19'4 3.7
2016-Apr-27 18:32N 48°51' W 123°21'8 8.3
2016-Apr-27 17:34N 48°57' W 123°12'4 4.3
2016-Apr-27 16:33N 49°00' W 123°08'1010.0
2016-Apr-27 15:33N 48°53' W 123°18'2 2.5
2016-Apr-27 14:33N 48°51' W 123°20'3 3.3
2016-Apr-27 13:33N 48°49' W 123°24'3 2.8
2016-Apr-27 12:33N 48°51' W 123°27'0 0.0
2016-Apr-27 11:28N 48°51' W 123°27'0 0.0
2016-Apr-27 10:12N 48°51' W 123°27'0 0.0
2016-Apr-27 08:27N 48°51' W 123°27'0 0.0
2016-Apr-27 05:31N 48°51' W 123°27'5 5.7
2016-Apr-27 04:33N 48°48' W 123°20'5 4.7
2016-Apr-27 03:33N 48°53' W 123°19'10 9.5
2016-Apr-27 02:33N 48°60' W 123°09'1 1.1
2016-Apr-27 01:33N 49°00' W 123°08'1110.4
2016-Apr-27 00:32N 48°53' W 123°19'2 1.9
2016-Apr-26 23:30N 48°51' W 123°20'3 3.5
2016-Apr-26 22:33N 48°50' W 123°25'2 0.9
2016-Apr-26 20:20N 48°51' W 123°27'6 7.7
2016-Apr-26 19:33N 48°48' W 123°19'4 3.7
2016-Apr-26 18:33N 48°51' W 123°21'9 8.6
2016-Apr-26 17:34N 48°58' W 123°12'4 4.0
2016-Apr-26 16:34N 49°00' W 123°08'1010.4
2016-Apr-26 15:33N 48°53' W 123°18'2 2.0
2016-Apr-26 14:31N 48°51' W 123°20'3 3.4
2016-Apr-26 13:33N 48°50' W 123°24'2 1.5
2016-Apr-26 12:07N 48°51' W 123°27'0 0.0
2016-Apr-26 11:27N 48°51' W 123°27'0 0.0
2016-Apr-26 09:24N 48°51' W 123°27'0 0.0
2016-Apr-26 08:33N 48°51' W 123°27'0 0.0
2016-Apr-26 05:32N 48°51' W 123°27'6 5.8
2016-Apr-26 04:30N 48°48' W 123°19'5 4.9
2016-Apr-26 03:33N 48°53' W 123°19'1010.5
2016-Apr-26 02:34N 49°00' W 123°08'0 0.2
2016-Apr-26 01:33N 49°00' W 123°08'1110.7
2016-Apr-26 00:34N 48°53' W 123°19'3 2.7
2016-Apr-25 23:33N 48°50' W 123°20'3 2.6
2016-Apr-25 22:33N 48°49' W 123°24'3 1.5
2016-Apr-25 20:29N 48°51' W 123°27'6 5.5
2016-Apr-25 19:23N 48°48' W 123°19'4 4.4
2016-Apr-25 18:34N 48°52' W 123°19'9 8.6
2016-Apr-25 17:33N 48°58' W 123°10'3 2.7
2016-Apr-25 16:33N 49°00' W 123°08'1110.7
2016-Apr-25 15:34N 48°53' W 123°19'2 1.9
2016-Apr-25 14:33N 48°51' W 123°20'3 3.3
2016-Apr-25 13:33N 48°49' W 123°24'3 0.9
2016-Apr-25 10:21N 48°51' W 123°27'0 0.0
2016-Apr-25 09:06N 48°51' W 123°27'0 0.0
2016-Apr-25 06:04N 48°51' W 123°27'1 2.7
2016-Apr-25 05:33N 48°51' W 123°25'1514.7
2016-Apr-25 04:34N 49°00' W 123°08'1010.0
2016-Apr-25 03:34N 48°53' W 123°18'3 2.6
2016-Apr-25 02:34N 48°51' W 123°21'1312.5
2016-Apr-25 01:33N 49°00' W 123°08'7 7.3
2016-Apr-25 00:33N 48°55' W 123°15'5 5.1
2016-Apr-24 23:33N 48°51' W 123°20'5 4.3
2016-Apr-24 22:28N 48°51' W 123°27'0 0.0
2016-Apr-24 21:30N 48°51' W 123°27'6 6.4
2016-Apr-24 20:33N 48°48' W 123°19'4 4.2
2016-Apr-24 19:33N 48°52' W 123°18'1010.5
2016-Apr-24 18:33N 48°60' W 123°08'0 0.5
2016-Apr-24 17:33N 49°00' W 123°08'10 9.7
2016-Apr-24 16:33N 48°53' W 123°17'3 2.7
2016-Apr-24 15:31N 48°51' W 123°20'3 3.4
2016-Apr-24 14:33N 48°49' W 123°24'3 2.6
2016-Apr-24 13:31N 48°51' W 123°27'0 0.0
2016-Apr-24 12:32N 48°51' W 123°27'0 0.0
2016-Apr-24 11:32N 48°51' W 123°27'0 0.0
2016-Apr-24 10:33N 48°51' W 123°27'0 0.0
2016-Apr-24 09:26N 48°51' W 123°27'0 0.0
2016-Apr-24 08:33N 48°51' W 123°27'0 0.0
2016-Apr-24 06:19N 48°51' W 123°27'2 2.3
2016-Apr-24 05:33N 48°51' W 123°24'4 3.7
2016-Apr-24 04:33N 48°53' W 123°19'1110.7
2016-Apr-24 03:33N 49°00' W 123°08'0 0.0
2016-Apr-24 02:33N 49°00' W 123°08'0 0.0
2016-Apr-24 01:33N 49°00' W 123°08'1110.7
2016-Apr-24 00:33N 48°53' W 123°19'4 3.6
2016-Apr-23 23:33N 48°49' W 123°20'5 3.3
2016-Apr-23 22:06N 48°51' W 123°27'0 0.0
2016-Apr-23 21:09N 48°51' W 123°27'1 2.4
2016-Apr-23 20:33N 48°51' W 123°25'  

Dump ship's entire track history